Time;durP1;ratioP1;P1;durP2;ratioP2;P2;SDS_P1;SDS_P2;PMS_P1;PMS_P2;Temp;Humidity;BMP_temperature;BMP_pressure;BME280_temperature;BME280_humidity;BME280_pressure;Samples;Min_cycle;Max_cycle;Signal;HPM_P1;HPM_P2
2022/05/19 00:00:08;;;;;;;10.60;9.85;;;;;;;;;;10449817;28;20588;-73
2022/05/19 00:05:13;;;;;;;11.93;10.98;;;;;;;;;;10422950;28;20234;-73
2022/05/19 00:10:14;;;;;;;12.98;11.77;;;;;;;;;;10435117;28;20279;-73
2022/05/19 00:15:16;;;;;;;13.52;12.40;;;;;;;;;;10452424;28;20674;-72
2022/05/19 00:20:19;;;;;;;13.20;12.00;;;;;;;;;;10458697;28;20215;-72
2022/05/19 00:25:20;;;;;;;12.93;11.73;;;;;;;;;;10456524;28;20279;-72
2022/05/19 00:30:21;;;;;;;13.02;12.02;;;;;;;;;;10406072;28;20265;-73
2022/05/19 00:35:22;;;;;;;14.27;13.20;;;;;;;;;;10438247;28;20320;-74
2022/05/19 00:40:24;;;;;;;14.85;13.57;;;;;;;;;;10446093;28;20713;-73
2022/05/19 00:45:33;;;;;;;14.60;13.05;;;;;;;;;;10426651;28;20210;-73
2022/05/19 00:50:43;;;;;;;15.43;14.02;;;;;;;;;;10406703;28;20206;-73
2022/05/19 00:55:46;;;;;;;14.93;13.43;;;;;;;;;;10422834;28;20202;-73
2022/05/19 01:00:47;;;;;;;16.15;14.85;;;;;;;;;;10434734;28;20249;-74
2022/05/19 01:05:50;;;;;;;14.98;13.80;;;;;;;;;;10442057;28;20624;-73
2022/05/19 01:10:51;;;;;;;14.25;13.13;;;;;;;;;;10418294;28;20203;-73
2022/05/19 01:15:53;;;;;;;14.45;13.15;;;;;;;;;;10431429;28;20582;-73
2022/05/19 01:20:56;;;;;;;16.23;14.55;;;;;;;;;;10399324;28;20202;-73
2022/05/19 01:26:13;;;;;;;16.60;15.20;;;;;;;;;;10418266;28;20194;-73
2022/05/19 01:31:32;;;;;;;16.23;14.98;;;;;;;;;;10447877;28;20279;-73
2022/05/19 01:36:33;;;;;;;17.85;16.08;;;;;;;;;;10449464;28;20194;-73
2022/05/19 01:41:53;;;;;;;15.55;13.93;;;;;;;;;;10408212;28;20777;-73
2022/05/19 01:47:21;;;;;;;16.88;15.38;;;;;;;;;;10410220;28;20625;-73
2022/05/19 01:52:28;;;;;;;17.00;15.32;;;;;;;;;;10396828;28;20206;-73
2022/05/19 01:57:35;;;;;;;18.80;17.05;;;;;;;;;;10413749;28;20210;-73
2022/05/19 02:02:54;;;;;;;18.27;16.08;;;;;;;;;;10427236;28;20222;-73
2022/05/19 02:07:57;;;;;;;18.50;16.80;;;;;;;;;;10444835;28;20210;-73
2022/05/19 02:12:59;;;;;;;17.85;16.15;;;;;;;;;;10438658;28;20777;-73
2022/05/19 02:18:02;;;;;;;18.13;16.58;;;;;;;;;;10412979;28;20205;-73
2022/05/19 02:23:04;;;;;;;18.83;16.92;;;;;;;;;;10433174;28;20209;-73
2022/05/19 02:28:07;;;;;;;17.52;16.05;;;;;;;;;;10418710;28;20207;-73
2022/05/19 02:33:09;;;;;;;17.05;15.48;;;;;;;;;;10458584;28;20359;-73
2022/05/19 02:38:10;;;;;;;18.30;16.67;;;;;;;;;;10427287;28;20262;-73
2022/05/19 02:43:12;;;;;;;18.15;16.33;;;;;;;;;;10433973;28;20198;-73
2022/05/19 02:48:14;;;;;;;18.63;16.83;;;;;;;;;;10423412;28;20281;-73
2022/05/19 02:53:16;;;;;;;22.40;18.20;;;;;;;;;;10446288;28;20202;-73
2022/05/19 02:58:17;;;;;;;28.55;16.52;;;;;;;;;;10443077;28;20195;-72
2022/05/19 03:03:19;;;;;;;19.45;17.58;;;;;;;;;;10407926;28;20261;-74
2022/05/19 03:08:20;;;;;;;19.88;18.20;;;;;;;;;;10433807;28;20266;-73
2022/05/19 03:13:22;;;;;;;16.77;15.15;;;;;;;;;;10431569;28;20224;-73
2022/05/19 03:18:23;;;;;;;17.60;15.30;;;;;;;;;;10434769;28;20205;-73
2022/05/19 03:23:24;;;;;;;19.52;17.63;;;;;;;;;;10454570;28;20220;-73
2022/05/19 03:28:25;;;;;;;20.23;18.35;;;;;;;;;;10445373;28;20193;-73
2022/05/19 03:33:26;;;;;;;20.90;18.92;;;;;;;;;;10455212;28;20249;-73
2022/05/19 03:38:28;;;;;;;18.52;16.77;;;;;;;;;;10443463;28;20204;-73
2022/05/19 03:43:29;;;;;;;19.30;17.48;;;;;;;;;;10418860;28;20991;-73
2022/05/19 03:48:34;;;;;;;19.77;17.98;;;;;;;;;;10446687;28;20221;-73
2022/05/19 03:53:35;;;;;;;20.52;18.42;;;;;;;;;;10442123;28;20248;-73
2022/05/19 03:58:36;;;;;;;20.38;18.35;;;;;;;;;;10455464;28;20238;-73
2022/05/19 04:03:37;;;;;;;20.48;18.40;;;;;;;;;;10423547;28;20218;-73
2022/05/19 04:08:38;;;;;;;18.83;17.23;;;;;;;;;;10454005;28;20256;-73
2022/05/19 04:13:39;;;;;;;20.10;17.67;;;;;;;;;;10414015;28;20233;-73
2022/05/19 04:18:41;;;;;;;18.48;16.23;;;;;;;;;;10459901;28;20272;-73
2022/05/19 04:23:42;;;;;;;18.33;16.63;;;;;;;;;;10455322;28;20237;-73
2022/05/19 04:28:43;;;;;;;18.63;17.08;;;;;;;;;;10459778;28;20210;-74
2022/05/19 04:33:44;;;;;;;18.08;16.45;;;;;;;;;;10434504;28;20275;-72
2022/05/19 04:38:45;;;;;;;19.02;17.20;;;;;;;;;;10460899;28;20206;-73
2022/05/19 04:43:46;;;;;;;18.00;16.48;;;;;;;;;;10453386;28;20217;-74
2022/05/19 04:48:47;;;;;;;17.15;15.55;;;;;;;;;;10457498;28;20206;-74
2022/05/19 04:53:48;;;;;;;15.30;14.15;;;;;;;;;;10420581;28;20621;-74
2022/05/19 04:58:49;;;;;;;16.83;15.15;;;;;;;;;;10432706;28;20756;-74
2022/05/19 05:03:51;;;;;;;14.07;12.65;;;;;;;;;;10418546;28;20315;-76
2022/05/19 05:08:52;;;;;;;13.55;12.32;;;;;;;;;;10377500;28;20211;-77
2022/05/19 05:13:53;;;;;;;14.10;11.70;;;;;;;;;;10381180;28;20230;-76
2022/05/19 05:18:55;;;;;;;12.90;11.82;;;;;;;;;;10364876;28;20342;-76
2022/05/19 05:23:56;;;;;;;13.38;12.15;;;;;;;;;;10400331;28;20322;-77
2022/05/19 05:28:57;;;;;;;13.00;11.80;;;;;;;;;;10380135;28;20222;-76
2022/05/19 05:33:58;;;;;;;12.70;11.07;;;;;;;;;;10365752;28;20672;-76
2022/05/19 05:38:59;;;;;;;11.95;10.77;;;;;;;;;;10365512;28;20223;-76
2022/05/19 05:44:00;;;;;;;14.73;11.65;;;;;;;;;;10397292;28;20210;-76
2022/05/19 05:49:01;;;;;;;12.23;11.18;;;;;;;;;;10388535;28;20795;-76
2022/05/19 05:54:02;;;;;;;10.80;9.95;;;;;;;;;;10372911;28;20417;-76
2022/05/19 05:59:03;;;;;;;10.90;9.80;;;;;;;;;;10396756;28;20729;-77
2022/05/19 06:04:05;;;;;;;11.50;10.30;;;;;;;;;;10399473;28;20219;-76
2022/05/19 06:09:06;;;;;;;10.30;9.60;;;;;;;;;;10443566;28;20269;-76
2022/05/19 06:14:07;;;;;;;9.90;9.20;;;;;;;;;;10443613;28;20202;-77
2022/05/19 06:19:08;;;;;;;10.93;9.82;;;;;;;;;;10433276;28;20213;-76
2022/05/19 06:24:09;;;;;;;10.90;9.77;;;;;;;;;;10465094;28;20575;-76
2022/05/19 06:29:10;;;;;;;10.57;9.55;;;;;;;;;;10427016;28;20190;-76
2022/05/19 06:34:13;;;;;;;10.48;9.50;;;;;;;;;;10443276;28;20604;-76
2022/05/19 06:39:18;;;;;;;10.25;8.68;;;;;;;;;;10461092;28;20271;-77
2022/05/19 06:44:19;;;;;;;8.50;7.80;;;;;;;;;;10444885;28;20214;-77
2022/05/19 06:49:20;;;;;;;9.27;8.55;;;;;;;;;;10447709;28;20251;-77
2022/05/19 06:54:21;;;;;;;9.40;8.70;;;;;;;;;;10433405;28;20199;-77
2022/05/19 06:59:23;;;;;;;8.63;8.02;;;;;;;;;;10454178;28;20206;-77
2022/05/19 07:04:24;;;;;;;8.15;7.45;;;;;;;;;;10455944;28;20225;-77
2022/05/19 07:09:25;;;;;;;7.75;7.05;;;;;;;;;;10456005;28;20221;-77
2022/05/19 07:14:26;;;;;;;7.35;6.82;;;;;;;;;;10463189;28;20218;-77
2022/05/19 07:24:48;;;;;;;7.97;7.15;;;;;;;;;;10459403;28;20227;-76
2022/05/19 07:29:49;;;;;;;6.28;6.00;;;;;;;;;;10431257;28;20305;-76
2022/05/19 07:34:52;;;;;;;7.72;7.07;;;;;;;;;;10464819;28;20313;-76
2022/05/19 07:39:53;;;;;;;7.80;7.40;;;;;;;;;;10445669;28;20202;-76
2022/05/19 07:44:55;;;;;;;7.47;6.90;;;;;;;;;;10447387;28;20210;-76
2022/05/19 07:49:56;;;;;;;8.38;7.85;;;;;;;;;;10465663;28;20202;-76
2022/05/19 07:55:00;;;;;;;7.95;7.40;;;;;;;;;;10441809;28;20289;-76
2022/05/19 08:00:01;;;;;;;8.05;6.95;;;;;;;;;;10454098;28;20221;-75
2022/05/19 08:05:04;;;;;;;8.07;7.43;;;;;;;;;;10461393;28;20221;-76
2022/05/19 08:10:20;;;;;;;9.18;8.02;;;;;;;;;;10462676;28;20208;-76
2022/05/19 08:15:37;;;;;;;7.53;6.25;;;;;;;;;;10456124;28;20301;-76
2022/05/19 08:20:43;;;;;;;5.68;5.45;;;;;;;;;;10428402;28;20222;-76
2022/05/19 08:25:44;;;;;;;5.90;5.43;;;;;;;;;;10445537;28;20217;-76
2022/05/19 08:30:47;;;;;;;5.50;5.20;;;;;;;;;;10452191;28;20210;-77
2022/05/19 08:35:49;;;;;;;5.03;4.63;;;;;;;;;;10454188;28;20194;-76
2022/05/19 08:40:51;;;;;;;5.32;4.93;;;;;;;;;;10430784;28;20201;-76
2022/05/19 08:46:00;;;;;;;4.65;4.25;;;;;;;;;;10445586;28;20345;-76
2022/05/19 08:51:06;;;;;;;3.72;3.22;;;;;;;;;;10438850;28;20230;-76
2022/05/19 08:56:25;;;;;;;3.83;3.60;;;;;;;;;;10423365;28;20198;-73
2022/05/19 09:01:47;;;;;;;4.53;4.20;;;;;;;;;;10410344;28;20225;-76
2022/05/19 09:12:15;;;;;;;3.90;3.70;;;;;;;;;;10422781;28;20234;-76
2022/05/19 09:17:17;;;;;;;3.60;3.50;;;;;;;;;;10420323;28;20210;-75
2022/05/19 09:22:23;;;;;;;4.28;3.58;;;;;;;;;;10399177;28;20221;-76
2022/05/19 09:27:24;;;;;;;4.00;3.47;;;;;;;;;;10421423;28;20203;-75
2022/05/19 09:32:30;;;;;;;6.18;3.05;;;;;;;;;;10439294;28;20225;-76
2022/05/19 09:37:42;;;;;;;3.38;3.15;;;;;;;;;;10445659;28;20208;-75
2022/05/19 09:43:03;;;;;;;3.15;2.53;;;;;;;;;;10447208;28;20222;-75
2022/05/19 09:48:05;;;;;;;2.53;2.30;;;;;;;;;;10439144;28;20208;-76
2022/05/19 09:53:07;;;;;;;2.42;2.33;;;;;;;;;;10408848;28;20203;-76
2022/05/19 09:58:10;;;;;;;3.13;2.63;;;;;;;;;;10425314;28;20209;-76
2022/05/19 10:03:12;;;;;;;2.55;2.35;;;;;;;;;;10415396;28;20265;-76
2022/05/19 10:08:16;;;;;;;2.35;2.25;;;;;;;;;;10447482;28;20202;-76
2022/05/19 10:13:17;;;;;;;2.17;2.00;;;;;;;;;;10465725;28;20194;-77
2022/05/19 10:18:38;;;;;;;3.60;2.13;;;;;;;;;;10446136;28;20217;-77
2022/05/19 10:23:50;;;;;;;2.17;1.98;;;;;;;;;;10432439;28;20225;-77
2022/05/19 10:34:32;;;;;;;1.23;1.20;;;;;;;;;;10436016;28;20214;-77
2022/05/19 10:39:42;;;;;;;3.63;1.85;;;;;;;;;;10441839;28;20574;-76
2022/05/19 10:45:02;;;;;;;1.85;1.52;;;;;;;;;;10448017;28;20210;-77
2022/05/19 10:50:09;;;;;;;1.58;1.52;;;;;;;;;;10464547;28;20986;-77
2022/05/19 10:55:14;;;;;;;2.50;1.45;;;;;;;;;;10466143;28;20842;-76
2022/05/19 11:00:27;;;;;;;1.67;1.55;;;;;;;;;;10450569;28;20264;-77
2022/05/19 11:05:28;;;;;;;2.47;1.45;;;;;;;;;;10415617;28;20776;-77
2022/05/19 11:10:34;;;;;;;2.63;1.75;;;;;;;;;;10425436;28;20210;-77
2022/05/19 11:15:42;;;;;;;1.73;1.17;;;;;;;;;;10447612;28;20213;-78
2022/05/19 11:20:59;;;;;;;1.33;1.33;;;;;;;;;;10448188;28;20225;-77
2022/05/19 11:26:24;;;;;;;3.05;1.50;;;;;;;;;;10464111;28;20902;-77
2022/05/19 11:31:35;;;;;;;1.40;1.40;;;;;;;;;;10462264;28;20215;-77
2022/05/19 11:36:44;;;;;;;3.60;1.60;;;;;;;;;;10441330;28;20201;-77
2022/05/19 11:41:47;;;;;;;2.47;1.60;;;;;;;;;;10462900;28;20231;-77
2022/05/19 11:46:56;;;;;;;1.25;1.17;;;;;;;;;;10430868;28;20203;-78
2022/05/19 11:57:23;;;;;;;3.28;1.55;;;;;;;;;;10472061;28;20202;-77
2022/05/19 12:02:36;;;;;;;1.70;1.60;;;;;;;;;;10438330;28;20748;-77
2022/05/19 12:08:00;;;;;;;1.35;1.35;;;;;;;;;;10447828;28;20293;-78
2022/05/19 12:13:03;;;;;;;1.70;1.60;;;;;;;;;;10443155;28;20615;-78
2022/05/19 12:18:10;;;;;;;1.58;1.40;;;;;;;;;;10430117;28;20209;-77
2022/05/19 12:23:14;;;;;;;2.95;1.40;;;;;;;;;;10439798;28;20210;-77
2022/05/19 12:28:21;;;;;;;2.75;1.20;;;;;;;;;;10446138;28;21021;-76
2022/05/19 12:33:22;;;;;;;3.63;1.33;;;;;;;;;;10457232;28;20215;-78
2022/05/19 12:38:28;;;;;;;1.92;1.50;;;;;;;;;;10452988;28;20265;-77
2022/05/19 12:43:45;;;;;;;5.03;1.58;;;;;;;;;;10417839;28;20210;-78
2022/05/19 12:48:48;;;;;;;6.28;1.40;;;;;;;;;;10468307;28;20209;-77
2022/05/19 12:53:49;;;;;;;2.92;1.35;;;;;;;;;;10460969;28;20293;-77
2022/05/19 12:59:00;;;;;;;2.28;1.10;;;;;;;;;;10416561;28;20708;-78
2022/05/19 13:04:01;;;;;;;1.70;1.60;;;;;;;;;;10448393;28;20702;-77
2022/05/19 13:09:05;;;;;;;4.40;1.50;;;;;;;;;;10445353;28;20213;-78
2022/05/19 13:14:08;;;;;;;9.65;1.83;;;;;;;;;;10452342;28;20251;-79
2022/05/19 13:19:15;;;;;;;3.42;1.25;;;;;;;;;;10469724;28;20194;-77
2022/05/19 13:24:16;;;;;;;4.05;1.52;;;;;;;;;;10466328;28;20311;-78
2022/05/19 13:34:44;;;;;;;3.30;1.13;;;;;;;;;;10464884;28;20257;-78
2022/05/19 13:39:45;;;;;;;1.30;1.20;;;;;;;;;;10465667;28;20284;-79
2022/05/19 13:44:47;;;;;;;0.93;0.88;;;;;;;;;;10466171;28;21192;-77
2022/05/19 13:50:09;;;;;;;2.00;1.17;;;;;;;;;;10451911;28;20209;-78
2022/05/19 13:55:26;;;;;;;1.35;1.00;;;;;;;;;;10469000;28;20206;-79
2022/05/19 14:00:29;;;;;;;4.38;1.10;;;;;;;;;;10466820;28;20202;-78
2022/05/19 14:05:36;;;;;;;2.83;1.05;;;;;;;;;;10436251;28;20256;-79
2022/05/19 14:10:42;;;;;;;1.00;1.00;;;;;;;;;;10446331;28;20289;-78
2022/05/19 14:15:48;;;;;;;0.88;0.88;;;;;;;;;;10449882;28;20653;-78
2022/05/19 14:20:50;;;;;;;1.58;1.00;;;;;;;;;;10447991;28;20699;-78
2022/05/19 14:25:58;;;;;;;1.55;1.30;;;;;;;;;;10442524;28;20222;-78
2022/05/19 14:31:00;;;;;;;3.30;1.08;;;;;;;;;;10451543;28;20757;-78
2022/05/19 14:36:05;;;;;;;3.65;1.13;;;;;;;;;;10440213;28;20202;-78
2022/05/19 14:46:27;;;;;;;1.30;1.10;;;;;;;;;;10442595;28;20203;-78
2022/05/19 14:51:35;;;;;;;1.05;1.05;;;;;;;;;;10439692;28;20202;-78
2022/05/19 14:56:41;;;;;;;3.42;0.80;;;;;;;;;;10456516;28;20660;-78
2022/05/19 15:01:42;;;;;;;0.68;0.68;;;;;;;;;;10443978;28;20337;-79
2022/05/19 15:06:43;;;;;;;0.70;0.70;;;;;;;;;;10463772;28;20604;-78
2022/05/19 15:11:44;;;;;;;2.08;0.70;;;;;;;;;;10429394;28;20206;-78
2022/05/19 15:16:47;;;;;;;2.47;2.38;;;;;;;;;;10461518;28;20198;-78
2022/05/19 15:21:48;;;;;;;9.80;9.05;;;;;;;;;;10434662;28;20728;-77
2022/05/19 15:26:49;;;;;;;2.83;1.50;;;;;;;;;;10448116;28;20213;-78
2022/05/19 15:31:50;;;;;;;2.72;1.08;;;;;;;;;;10433465;28;20216;-78
2022/05/19 15:36:51;;;;;;;4.25;1.13;;;;;;;;;;10453227;28;20213;-78
2022/05/19 15:41:52;;;;;;;3.47;1.13;;;;;;;;;;10423600;28;20209;-78
2022/05/19 15:46:54;;;;;;;2.90;1.02;;;;;;;;;;10472686;28;20194;-77
2022/05/19 15:51:55;;;;;;;2.55;1.20;;;;;;;;;;10433842;28;21022;-78
2022/05/19 15:56:56;;;;;;;3.17;0.98;;;;;;;;;;10404021;28;20198;-77
2022/05/19 16:01:57;;;;;;;4.70;1.10;;;;;;;;;;10418181;28;20629;-78
2022/05/19 16:06:59;;;;;;;1.20;0.98;;;;;;;;;;10455539;28;20271;-78
2022/05/19 16:12:01;;;;;;;7.80;6.72;;;;;;;;;;10452947;28;20284;-77
2022/05/19 16:17:02;;;;;;;45.95;37.88;;;;;;;;;;10452048;28;20923;-77
2022/05/19 16:22:07;;;;;;;12.60;11.32;;;;;;;;;;10462584;28;20230;-77
2022/05/19 16:27:08;;;;;;;8.77;4.68;;;;;;;;;;10443439;28;20190;-77
2022/05/19 16:32:09;;;;;;;4.15;4.00;;;;;;;;;;10435917;28;20702;-77
2022/05/19 16:37:21;;;;;;;6.95;6.30;;;;;;;;;;10434252;28;20214;-77
2022/05/19 16:42:24;;;;;;;1.63;1.63;;;;;;;;;;10438905;28;20213;-77
2022/05/19 16:47:25;;;;;;;1.90;1.77;;;;;;;;;;10440145;28;20317;-77
2022/05/19 16:52:26;;;;;;;6.50;6.00;;;;;;;;;;10432608;28;20656;-77
2022/05/19 16:57:43;;;;;;;1.90;1.48;;;;;;;;;;10442937;28;20209;-77
2022/05/19 17:02:45;;;;;;;3.03;2.65;;;;;;;;;;10466049;28;20305;-77
2022/05/19 17:07:46;;;;;;;9.32;8.52;;;;;;;;;;10391341;28;20227;-76
2022/05/19 17:12:48;;;;;;;3.95;3.63;;;;;;;;;;10373617;28;20219;-77
2022/05/19 17:17:50;;;;;;;3.33;1.60;;;;;;;;;;10374504;28;20199;-77
2022/05/19 17:22:51;;;;;;;3.53;1.73;;;;;;;;;;10357609;28;20204;-77
2022/05/19 17:27:52;;;;;;;1.40;1.33;;;;;;;;;;10372282;28;20211;-76
2022/05/19 17:32:56;;;;;;;1.40;1.33;;;;;;;;;;10391555;28;20665;-75
2022/05/19 17:37:57;;;;;;;1.45;1.35;;;;;;;;;;10388420;28;20902;-77
2022/05/19 17:42:59;;;;;;;5.50;1.67;;;;;;;;;;10371381;28;20207;-74
2022/05/19 17:48:00;;;;;;;5.18;1.63;;;;;;;;;;10383125;28;20227;-75
2022/05/19 17:53:01;;;;;;;4.40;1.38;;;;;;;;;;10367443;28;20237;-74
2022/05/19 17:58:03;;;;;;;7.45;1.05;;;;;;;;;;10370784;28;20687;-75
2022/05/19 18:03:04;;;;;;;3.60;1.15;;;;;;;;;;10375254;28;20211;-75
2022/05/19 18:08:07;;;;;;;3.58;1.08;;;;;;;;;;10439902;28;20769;-76
2022/05/19 18:13:09;;;;;;;2.15;0.88;;;;;;;;;;10467354;28;20783;-75
2022/05/19 18:18:22;;;;;;;1.83;0.90;;;;;;;;;;10434330;28;20241;-75
2022/05/19 18:23:25;;;;;;;1.13;0.90;;;;;;;;;;10449040;28;21275;-75
2022/05/19 18:28:26;;;;;;;2.17;0.90;;;;;;;;;;10440349;28;20202;-75
2022/05/19 18:33:28;;;;;;;2.58;0.80;;;;;;;;;;10443022;28;20283;-74
2022/05/19 18:38:29;;;;;;;4.03;1.33;;;;;;;;;;10443561;28;20674;-75
2022/05/19 18:48:50;;;;;;;2.80;0.82;;;;;;;;;;10432208;28;20202;-76
2022/05/19 18:53:51;;;;;;;6.22;1.50;;;;;;;;;;10436797;28;20316;-76
2022/05/19 18:58:53;;;;;;;2.58;1.58;;;;;;;;;;10457657;28;20682;-76
2022/05/19 19:03:55;;;;;;;1.80;1.30;;;;;;;;;;10424362;28;20242;-75
2022/05/19 19:08:56;;;;;;;1.65;1.55;;;;;;;;;;10422341;28;20652;-76
2022/05/19 19:13:58;;;;;;;5.35;0.90;;;;;;;;;;10437993;28;20198;-76
2022/05/19 19:19:03;;;;;;;1.83;1.27;;;;;;;;;;10443734;28;20237;-76
2022/05/19 19:24:05;;;;;;;1.80;1.63;;;;;;;;;;10462402;28;20229;-75
2022/05/19 19:29:07;;;;;;;1.42;1.38;;;;;;;;;;10451849;28;20743;-76
2022/05/19 19:34:12;;;;;;;3.22;2.40;;;;;;;;;;10456499;28;20629;-75
2022/05/19 19:39:14;;;;;;;4.18;1.70;;;;;;;;;;10458539;28;20221;-75
2022/05/19 19:44:15;;;;;;;3.45;1.65;;;;;;;;;;10458408;28;20299;-75
2022/05/19 19:49:17;;;;;;;5.70;2.00;;;;;;;;;;10461139;28;20201;-75
2022/05/19 19:54:18;;;;;;;1.48;1.48;;;;;;;;;;10461437;28;20206;-76
2022/05/19 19:59:19;;;;;;;1.60;1.50;;;;;;;;;;10441343;28;20271;-75
2022/05/19 20:04:22;;;;;;;3.25;2.08;;;;;;;;;;10425184;28;20320;-75
2022/05/19 20:09:25;;;;;;;2.47;2.28;;;;;;;;;;10427053;28;20217;-75
2022/05/19 20:14:26;;;;;;;2.10;2.00;;;;;;;;;;10436803;28;20199;-74
2022/05/19 20:19:30;;;;;;;4.60;2.30;;;;;;;;;;10431006;28;20580;-75
2022/05/19 20:24:31;;;;;;;2.40;2.20;;;;;;;;;;10463100;28;20704;-75
2022/05/19 20:29:32;;;;;;;2.92;2.70;;;;;;;;;;10446128;28;20206;-75
2022/05/19 20:34:33;;;;;;;2.72;2.08;;;;;;;;;;10469595;28;20223;-75
2022/05/19 20:39:34;;;;;;;1.88;1.75;;;;;;;;;;10451131;28;20296;-75
2022/05/19 20:44:35;;;;;;;2.00;1.90;;;;;;;;;;10460662;28;20224;-73
2022/05/19 20:49:37;;;;;;;4.32;2.20;;;;;;;;;;10451312;28;20198;-75
2022/05/19 20:54:38;;;;;;;2.80;2.47;;;;;;;;;;10440022;28;20206;-75
2022/05/19 20:59:39;;;;;;;3.03;2.50;;;;;;;;;;10444738;28;20229;-75
2022/05/19 21:04:43;;;;;;;3.35;3.22;;;;;;;;;;10457511;28;20237;-75
2022/05/19 21:09:44;;;;;;;7.15;2.85;;;;;;;;;;10431756;28;20190;-75
2022/05/19 21:14:45;;;;;;;2.80;2.53;;;;;;;;;;10431869;28;20690;-75
2022/05/19 21:19:46;;;;;;;3.13;2.85;;;;;;;;;;10444139;28;21146;-75
2022/05/19 21:30:08;;;;;;;2.92;2.80;;;;;;;;;;10439446;28;20183;-75
2022/05/19 21:35:10;;;;;;;3.70;2.53;;;;;;;;;;10434863;28;20607;-74
2022/05/19 21:40:12;;;;;;;2.20;2.10;;;;;;;;;;10447289;28;20205;-74
2022/05/19 21:45:13;;;;;;;2.53;2.35;;;;;;;;;;10430975;28;20210;-75
2022/05/19 21:50:14;;;;;;;3.30;2.42;;;;;;;;;;10464178;28;20198;-75
2022/05/19 21:55:17;;;;;;;2.40;2.20;;;;;;;;;;10466635;28;20211;-75
2022/05/19 22:00:27;;;;;;;1.38;1.38;;;;;;;;;;10436480;28;20230;-75
2022/05/19 22:05:29;;;;;;;4.47;1.25;;;;;;;;;;10431055;28;20297;-75
2022/05/19 22:10:30;;;;;;;3.85;1.92;;;;;;;;;;10427647;28;20289;-75
2022/05/19 22:15:32;;;;;;;2.13;2.00;;;;;;;;;;10434547;28;20211;-74
2022/05/19 22:20:33;;;;;;;2.70;2.60;;;;;;;;;;10442901;28;20233;-75
2022/05/19 22:25:34;;;;;;;2.80;2.42;;;;;;;;;;10454206;28;20766;-75
2022/05/19 22:30:35;;;;;;;2.47;2.30;;;;;;;;;;10410161;28;20994;-74
2022/05/19 22:35:36;;;;;;;2.28;2.10;;;;;;;;;;10429849;28;20209;-75
2022/05/19 22:40:38;;;;;;;6.20;2.20;;;;;;;;;;10438793;28;20222;-74
2022/05/19 22:45:39;;;;;;;2.05;1.20;;;;;;;;;;10459919;28;20212;-74
2022/05/19 22:50:40;;;;;;;1.38;1.33;;;;;;;;;;10431325;28;20569;-74
2022/05/19 22:55:41;;;;;;;2.30;1.33;;;;;;;;;;10441022;28;21003;-74
2022/05/19 23:00:43;;;;;;;2.45;1.40;;;;;;;;;;10451041;28;20301;-74
2022/05/19 23:05:45;;;;;;;1.45;1.33;;;;;;;;;;10428797;28;20220;-74
2022/05/19 23:10:46;;;;;;;1.20;1.20;;;;;;;;;;10441378;28;20206;-75
2022/05/19 23:15:48;;;;;;;1.80;1.70;;;;;;;;;;10437639;28;20202;-75
2022/05/19 23:20:49;;;;;;;1.20;1.20;;;;;;;;;;10417587;28;20754;-75
2022/05/19 23:25:50;;;;;;;2.03;1.58;;;;;;;;;;10425585;28;20207;-75
2022/05/19 23:30:51;;;;;;;1.40;1.30;;;;;;;;;;10411888;28;20217;-73
2022/05/19 23:35:59;;;;;;;2.28;1.58;;;;;;;;;;10424329;28;20211;-74
2022/05/19 23:41:03;;;;;;;2.90;1.58;;;;;;;;;;10454080;28;20747;-75
2022/05/19 23:46:04;;;;;;;1.73;1.70;;;;;;;;;;10441376;28;20203;-75
2022/05/19 23:51:10;;;;;;;5.78;1.80;;;;;;;;;;10408542;28;20290;-75
2022/05/19 23:56:12;;;;;;;3.28;1.60;;;;;;;;;;10423152;28;20202;-75
